createdAt,value
2019-03-10T00:04:58.135Z,93698.49
2019-03-10T00:07:26.417Z,93686.21
2019-03-10T00:09:54.609Z,93675.74
2019-03-10T00:12:23.398Z,93672.05
2019-03-10T00:14:51.865Z,93671.46
2019-03-10T00:17:20.158Z,93669.44
2019-03-10T00:19:48.084Z,93660.19
2019-03-10T00:22:16.716Z,93657.34
2019-03-10T00:24:45.490Z,93659.78
2019-03-10T00:27:13.693Z,93650.11
2019-03-10T00:29:42.270Z,93656.33
2019-03-10T00:32:10.154Z,93654.22
2019-03-10T00:34:38.054Z,93644.58
2019-03-10T00:37:06.205Z,93633.08
2019-03-10T00:43:17.199Z,93634.09
2019-03-10T00:46:23.890Z,93628.77
2019-03-10T00:49:30.696Z,93612.90
2019-03-10T00:52:20.301Z,93604.13
2019-03-10T00:54:48.169Z,93593.20
2019-03-10T00:57:16.878Z,93581.63
2019-03-10T00:59:45.723Z,93581.25
2019-03-10T01:02:14.055Z,93584.31
2019-03-10T01:04:42.688Z,93576.11
2019-03-10T01:07:10.975Z,93572.59
2019-03-10T01:09:38.838Z,93563.23
2019-03-10T01:12:07.182Z,93561.78
2019-03-10T01:14:35.091Z,93552.98
2019-03-10T01:17:03.094Z,93536.70
2019-03-10T01:20:11.679Z,93542.23
2019-03-10T01:22:58.982Z,93549.63
2019-03-10T01:25:26.874Z,93548.77
2019-03-10T01:27:54.723Z,93537.19
2019-03-10T01:30:23.338Z,93524.89
2019-03-10T01:33:30.005Z,93530.80
2019-03-10T01:35:58.583Z,93536.00
2019-03-10T01:38:26.962Z,93523.49
2019-03-10T01:40:55.678Z,93529.87
2019-03-10T01:43:23.960Z,93515.68
2019-03-10T01:45:52.203Z,93496.97
2019-03-10T01:48:20.494Z,93498.87
2019-03-10T01:50:49.180Z,93494.98
2019-03-10T01:53:25.285Z,93485.17
2019-03-10T01:55:56.708Z,93481.88
2019-03-10T01:58:43.920Z,93481.52
2019-03-10T02:01:11.807Z,93482.33
2019-03-10T02:03:40.264Z,93476.33
2019-03-10T02:06:08.880Z,93464.59
2019-03-10T02:08:37.749Z,93452.91
2019-03-10T02:11:06.041Z,93455.84
2019-03-10T02:13:34.030Z,93448.05
2019-03-10T02:16:01.810Z,93446.17
2019-03-10T02:18:30.385Z,93439.05
2019-03-10T02:20:58.428Z,93426.62
2019-03-10T02:23:26.684Z,93405.92
2019-03-10T02:25:55.012Z,93396.86
2019-03-10T02:28:23.294Z,93392.58
2019-03-10T02:30:51.173Z,93386.92
2019-03-10T02:33:19.485Z,93387.95
2019-03-10T02:35:48.144Z,93388.11
2019-03-10T02:38:16.465Z,93391.94
2019-03-10T02:40:45.020Z,93376.90
2019-03-10T02:43:12.901Z,93367.19
2019-03-10T02:45:41.157Z,93374.95
2019-03-10T02:48:09.168Z,93373.26
2019-03-10T02:50:37.413Z,93366.42
2019-03-10T02:53:06.020Z,93356.52
2019-03-10T02:55:34.603Z,93357.99
2019-03-10T02:58:03.289Z,93359.31
2019-03-10T03:00:31.686Z,93363.74
2019-03-10T03:02:59.703Z,93370.08
2019-03-10T03:05:28.130Z,93366.66
2019-03-10T03:07:56.723Z,93365.92
2019-03-10T03:10:25.424Z,93357.22
2019-03-10T03:12:53.356Z,93358.92
2019-03-10T03:15:21.628Z,93350.45
2019-03-10T03:17:50.315Z,93350.78
2019-03-10T03:20:18.281Z,93337.45
2019-03-10T03:22:46.709Z,93328.80
2019-03-10T03:25:15.432Z,93311.66
2019-03-10T03:27:43.700Z,93312.80
2019-03-10T03:33:33.075Z,93298.72
2019-03-10T03:36:07.905Z,93294.09
2019-03-10T03:39:14.578Z,93291.23
2019-03-10T03:41:42.392Z,93284.25
2019-03-10T03:44:10.665Z,93267.94
2019-03-10T03:46:39.042Z,93263.78
2019-03-10T03:49:07.015Z,93242.34
2019-03-10T03:51:35.254Z,93236.42
2019-03-10T03:54:03.217Z,93236.58
2019-03-10T03:56:30.822Z,93229.38
2019-03-10T03:58:59.509Z,93220.66
2019-03-10T04:04:29.902Z,93208.73
2019-03-10T04:06:57.842Z,93193.98
2019-03-10T04:09:26.591Z,93190.45
2019-03-10T04:11:54.862Z,93176.74
2019-03-10T04:14:22.845Z,93164.13
2019-03-10T04:16:51.198Z,93152.06
2019-03-10T04:19:19.533Z,93145.28
2019-03-10T04:21:47.741Z,93127.98
2019-03-10T04:24:16.074Z,93136.67
2019-03-10T04:26:44.259Z,93117.53
2019-03-10T04:29:12.930Z,93105.61
2019-03-10T04:31:41.110Z,93106.41
2019-03-10T04:34:09.798Z,93111.06
2019-03-10T04:36:38.023Z,93104.39
2019-03-10T04:39:07.093Z,93095.23
2019-03-10T04:41:35.595Z,93095.82
2019-03-10T04:44:04.163Z,93093.30
2019-03-10T04:46:32.755Z,93082.36
2019-03-10T04:49:01.342Z,93079.56
2019-03-10T04:51:29.232Z,93071.57
2019-03-10T04:53:57.390Z,93068.20
2019-03-10T04:56:44.844Z,93066.78
2019-03-10T04:59:25.456Z,93063.22
2019-03-10T05:01:54.174Z,93044.22
2019-03-10T05:04:22.495Z,93033.87
2019-03-10T05:06:50.745Z,93022.05
2019-03-10T05:09:19.328Z,93016.98
2019-03-10T05:11:47.605Z,93011.13
2019-03-10T05:14:16.244Z,93005.78
2019-03-10T05:16:44.486Z,92997.34
2019-03-10T05:19:13.065Z,92991.11
2019-03-10T05:21:41.355Z,92977.77
2019-03-10T05:24:12.184Z,92985.05
2019-03-10T05:26:40.182Z,92972.41
2019-03-10T05:29:08.553Z,92963.88
2019-03-10T05:31:37.145Z,92969.70
2019-03-10T05:34:05.303Z,92965.06
2019-03-10T05:36:33.284Z,92962.71
2019-03-10T05:39:01.995Z,92965.96
2019-03-10T05:41:30.263Z,92959.85
2019-03-10T05:44:38.863Z,92967.23
2019-03-10T05:47:18.143Z,92955.74
2019-03-10T05:49:46.789Z,92937.08
2019-03-10T05:52:54.999Z,92933.78
2019-03-10T05:58:03.438Z,92919.77
2019-03-10T06:00:42.026Z,92911.59
2019-03-10T06:03:08.886Z,92900.81
2019-03-10T06:05:37.595Z,92903.77
2019-03-10T06:08:05.612Z,92905.95
2019-03-10T06:10:33.110Z,92902.06
2019-03-10T06:13:01.026Z,92897.13
2019-03-10T06:15:29.271Z,92887.48
2019-03-10T06:17:57.146Z,92886.14
2019-03-10T06:20:25.743Z,92884.94
2019-03-10T06:22:54.143Z,92880.02
2019-03-10T06:25:22.395Z,92878.03
2019-03-10T06:27:50.445Z,92870.02
2019-03-10T06:30:19.185Z,92865.41
2019-03-10T06:32:47.759Z,92863.26
2019-03-10T06:35:15.935Z,92863.67
2019-03-10T06:37:43.975Z,92866.03
2019-03-10T06:40:12.706Z,92858.50
2019-03-10T06:42:41.085Z,92870.28
2019-03-10T06:45:09.366Z,92865.19
2019-03-10T06:47:38.057Z,92874.46
2019-03-10T06:50:06.554Z,92869.35
2019-03-10T06:52:35.046Z,92876.74
2019-03-10T06:55:03.323Z,92871.14
2019-03-10T06:57:31.534Z,92875.51
2019-03-10T07:02:59.675Z,92865.69
2019-03-10T07:05:40.090Z,92856.63
2019-03-10T07:11:10.066Z,92869.93
2019-03-10T07:13:39.629Z,92856.52
2019-03-10T07:16:07.634Z,92851.94
2019-03-10T07:18:35.632Z,92842.52
2019-03-10T07:21:03.911Z,92833.32
2019-03-10T07:23:32.531Z,92837.50
2019-03-10T07:26:20.225Z,92833.71
2019-03-10T07:29:07.771Z,92840.80
2019-03-10T07:31:41.777Z,92835.91
2019-03-10T07:34:29.583Z,92835.61
2019-03-10T07:37:17.439Z,92845.94
2019-03-10T07:39:51.186Z,92843.83
2019-03-10T07:45:34.244Z,92852.41
2019-03-10T07:48:21.782Z,92865.45
2019-03-10T07:50:56.317Z,92858.07
2019-03-10T07:53:43.712Z,92854.30
2019-03-10T07:56:23.565Z,92859.72
2019-03-10T08:02:12.489Z,92863.26
2019-03-10T08:04:59.871Z,92874.61
2019-03-10T08:07:47.670Z,92872.51
2019-03-10T08:10:47.134Z,92883.17
2019-03-10T08:13:34.870Z,92888.22
2019-03-10T08:19:23.613Z,92872.90
2019-03-10T08:22:11.384Z,92861.09
2019-03-10T08:24:58.789Z,92876.45
2019-03-10T08:27:46.486Z,92861.23
2019-03-10T08:30:34.241Z,92878.38
2019-03-10T08:33:21.594Z,92877.70
2019-03-10T08:39:29.756Z,92894.98
2019-03-10T08:42:20.615Z,92897.77
2019-03-10T08:45:14.125Z,92889.16
2019-03-10T08:48:01.655Z,92901.77
2019-03-10T08:50:33.234Z,92911.32
2019-03-10T08:53:41.896Z,92903.45
2019-03-10T08:56:17.224Z,92901.35
2019-03-10T08:59:04.951Z,92886.64
2019-03-10T09:02:11.713Z,92879.73
2019-03-10T09:04:45.525Z,92867.26
2019-03-10T09:07:33.314Z,92875.81
2019-03-10T09:10:33.023Z,92885.17
2019-03-10T09:13:20.451Z,92871.37
2019-03-10T09:19:09.342Z,92875.89
2019-03-10T09:21:57.147Z,92874.42
2019-03-10T09:24:56.334Z,92878.85
2019-03-10T09:27:43.739Z,92858.34
2019-03-10T09:33:51.837Z,92856.52
2019-03-10T09:36:39.259Z,92860.22
2019-03-10T09:39:48.287Z,92849.67
2019-03-10T09:42:35.673Z,92839.89
2019-03-10T09:45:23.088Z,92844.55
2019-03-10T09:48:10.907Z,92837.14
2019-03-10T09:51:19.580Z,92833.31
2019-03-10T09:54:07.481Z,92830.45
2019-03-10T09:57:16.121Z,92847.39
2019-03-10T10:03:24.729Z,92836.33
2019-03-10T10:06:24.207Z,92842.09
2019-03-10T10:09:23.032Z,92831.58
2019-03-10T10:12:13.607Z,92827.14
2019-03-10T10:18:26.995Z,92826.09
2019-03-10T10:21:14.916Z,92833.00
2019-03-10T10:24:02.479Z,92830.44
2019-03-10T10:26:49.924Z,92839.58
2019-03-10T10:29:37.749Z,92819.86
2019-03-10T10:35:26.346Z,92823.84
2019-03-10T10:38:18.564Z,92813.34
2019-03-10T10:41:09.871Z,92814.66
2019-03-10T10:43:57.559Z,92808.67
2019-03-10T10:46:37.386Z,92796.33
2019-03-10T10:49:31.050Z,92804.41
2019-03-10T10:54:50.474Z,92787.30
2019-03-10T10:57:30.287Z,92801.17
2019-03-10T11:00:37.096Z,92794.09
2019-03-10T11:03:24.556Z,92790.25
2019-03-10T11:06:12.306Z,92791.45
2019-03-10T11:09:02.682Z,92789.32
2019-03-10T11:11:55.976Z,92790.84
2019-03-10T11:15:04.340Z,92803.97
2019-03-10T11:17:52.200Z,92804.19
2019-03-10T11:20:41.282Z,92795.94
2019-03-10T11:23:28.005Z,92783.02
2019-03-10T11:26:15.371Z,92768.19
2019-03-10T11:29:04.059Z,92764.13
2019-03-10T11:31:51.664Z,92804.24
2019-03-10T11:37:48.088Z,92783.30
2019-03-10T11:40:47.389Z,92793.01
2019-03-10T11:43:35.284Z,92766.72
2019-03-10T11:46:42.100Z,92757.33
2019-03-10T11:49:29.872Z,92744.03
2019-03-10T11:52:16.964Z,92797.66
2019-03-10T11:55:00.422Z,92758.58
2019-03-10T11:57:42.197Z,92780.16
2019-03-10T12:00:18.872Z,92762.39
2019-03-10T12:02:55.916Z,92761.81
2019-03-10T12:05:39.710Z,92791.89
2019-03-10T12:08:26.801Z,92759.08
2019-03-10T12:11:06.486Z,92721.66
2019-03-10T12:13:34.720Z,92736.53
2019-03-10T12:18:44.171Z,92726.88
2019-03-10T12:21:12.806Z,92720.38
2019-03-10T12:23:41.040Z,92719.58
2019-03-10T12:26:09.417Z,92747.45
2019-03-10T12:28:37.865Z,92726.31
2019-03-10T12:31:05.453Z,92716.41
2019-03-10T12:33:33.410Z,92741.66
2019-03-10T12:36:08.578Z,92731.20
2019-03-10T12:38:36.562Z,92732.77
2019-03-10T12:41:25.436Z,92710.55
2019-03-10T12:43:53.982Z,92724.42
2019-03-10T12:46:23.352Z,92712.88
2019-03-10T12:48:51.879Z,92734.72
2019-03-10T12:51:22.295Z,92712.23
2019-03-10T12:54:02.548Z,92718.29
2019-03-10T12:56:50.136Z,92726.77
2019-03-10T12:59:18.416Z,92727.77
2019-03-10T13:01:46.596Z,92722.41
2019-03-10T13:04:14.602Z,92720.09
2019-03-10T13:06:42.969Z,92722.37
2019-03-10T13:12:12.859Z,92734.35
2019-03-10T13:14:41.071Z,92743.34
2019-03-10T13:17:09.316Z,92754.50
2019-03-10T13:19:37.608Z,92763.78
2019-03-10T13:22:06.313Z,92768.63
2019-03-10T13:24:35.100Z,92742.55
2019-03-10T13:27:04.103Z,92772.08
2019-03-10T13:29:32.086Z,92788.13
2019-03-10T13:32:00.463Z,92832.91
2019-03-10T13:34:29.089Z,92828.37
2019-03-10T13:36:57.895Z,92822.39
2019-03-10T13:39:26.310Z,92806.80
2019-03-10T13:41:55.062Z,92806.03
2019-03-10T13:44:24.787Z,92815.99
2019-03-10T13:47:03.769Z,92826.95
2019-03-10T13:49:31.705Z,92836.70
2019-03-10T13:52:00.422Z,92831.21
2019-03-10T13:54:28.705Z,92865.77
2019-03-10T13:56:58.272Z,92858.27
2019-03-10T13:59:27.300Z,92860.09
2019-03-10T14:01:54.926Z,92877.22
2019-03-10T14:04:23.693Z,92854.58
2019-03-10T14:06:51.938Z,92866.89
2019-03-10T14:09:20.613Z,92862.75
2019-03-10T14:11:49.354Z,92873.09
2019-03-10T14:14:17.648Z,92853.58
2019-03-10T14:19:48.054Z,92814.73
2019-03-10T14:22:16.311Z,92820.41
2019-03-10T14:24:44.314Z,92844.89
2019-03-10T14:27:12.868Z,92868.45
2019-03-10T14:29:41.257Z,92844.22
2019-03-10T14:32:21.076Z,92857.13
2019-03-10T14:34:49.433Z,92853.17
2019-03-10T14:37:17.888Z,92882.28
2019-03-10T14:39:46.217Z,92889.70
2019-03-10T14:42:14.841Z,92891.05
2019-03-10T14:44:43.205Z,92893.92
2019-03-10T14:47:11.953Z,92884.63
2019-03-10T14:49:40.431Z,92872.89
2019-03-10T14:52:08.811Z,92904.63
2019-03-10T14:54:37.688Z,92851.95
2019-03-10T14:57:07.456Z,92874.28
2019-03-10T14:59:36.229Z,92874.63
2019-03-10T15:02:04.529Z,92866.89
2019-03-10T15:04:33.262Z,92862.16
2019-03-10T15:07:03.213Z,92874.92
2019-03-10T15:09:41.538Z,92911.81
2019-03-10T15:12:10.222Z,92916.72
2019-03-10T15:14:39.421Z,92901.62
2019-03-10T15:17:07.701Z,92900.57
2019-03-10T15:19:36.462Z,92930.33
2019-03-10T15:22:05.138Z,92922.17
2019-03-10T15:24:33.497Z,92931.24
2019-03-10T15:27:02.200Z,92956.69
2019-03-10T15:29:31.585Z,92934.16
2019-03-10T15:32:00.374Z,92942.52
2019-03-10T15:34:29.687Z,92918.63
2019-03-10T15:36:58.282Z,92940.63
2019-03-10T15:39:27.465Z,92928.84
2019-03-10T15:41:56.183Z,92932.87
2019-03-10T15:44:25.333Z,92947.35
2019-03-10T15:46:54.144Z,92946.48
2019-03-10T15:49:22.546Z,92945.51
2019-03-10T15:51:49.761Z,92947.73
2019-03-10T15:54:18.212Z,92976.56
2019-03-10T15:56:47.080Z,92954.69
2019-03-10T15:59:14.952Z,92970.57
2019-03-10T16:01:43.217Z,92983.11
2019-03-10T16:04:30.942Z,93012.86
2019-03-10T16:06:59.651Z,93007.64
2019-03-10T16:09:30.007Z,93018.53
2019-03-10T16:11:59.258Z,93009.05
2019-03-10T16:14:28.207Z,93023.42
2019-03-10T16:16:56.987Z,93008.70
2019-03-10T16:22:06.150Z,93031.44
2019-03-10T16:24:34.190Z,93023.60
2019-03-10T16:27:01.904Z,93012.40
2019-03-10T16:29:30.244Z,93031.44
2019-03-10T16:31:59.157Z,93014.09
2019-03-10T16:34:27.393Z,93034.03
2019-03-10T16:36:56.217Z,93041.01
2019-03-10T16:39:24.507Z,93047.05
2019-03-10T16:41:52.411Z,93037.29
2019-03-10T16:44:21.164Z,93069.29
2019-03-10T16:46:49.255Z,93061.86
2019-03-10T16:49:17.731Z,93087.17
2019-03-10T16:51:46.121Z,93079.95
2019-03-10T16:54:14.712Z,93102.40
2019-03-10T16:56:42.662Z,93093.52
2019-03-10T16:59:10.819Z,93124.18
2019-03-10T17:01:38.752Z,93105.69
2019-03-10T17:04:07.146Z,93125.82
2019-03-10T17:06:35.426Z,93129.33
2019-03-10T17:09:35.382Z,93134.06
2019-03-10T17:12:03.687Z,93149.64
2019-03-10T17:14:33.767Z,93157.51
2019-03-10T17:17:02.392Z,93170.19
2019-03-10T17:20:10.995Z,93191.32
2019-03-10T17:22:38.802Z,93178.58
2019-03-10T17:25:07.084Z,93184.48
2019-03-10T17:27:35.169Z,93189.21
2019-03-10T17:30:04.263Z,93193.27
2019-03-10T17:32:32.602Z,93208.98
2019-03-10T17:35:01.291Z,93191.27
2019-03-10T17:37:29.789Z,93207.09
2019-03-10T17:39:58.063Z,93219.95
2019-03-10T17:42:26.404Z,93220.61
2019-03-10T17:44:54.748Z,93218.00
2019-03-10T17:47:26.739Z,93218.31
2019-03-10T17:49:59.178Z,93228.73
2019-03-10T17:52:28.067Z,93233.33
2019-03-10T17:54:56.678Z,93222.21
2019-03-10T17:57:25.416Z,93228.90
2019-03-10T17:59:54.174Z,93244.03
2019-03-10T18:02:22.538Z,93245.16
2019-03-10T18:04:50.960Z,93230.87
2019-03-10T18:07:18.809Z,93241.88
2019-03-10T18:09:47.236Z,93241.05
2019-03-10T18:12:16.720Z,93238.19
2019-03-10T18:14:44.851Z,93225.67
2019-03-10T18:17:13.560Z,93237.22
2019-03-10T18:19:41.856Z,93231.60
2019-03-10T18:22:10.947Z,93242.70
2019-03-10T18:24:39.848Z,93227.23
2019-03-10T18:27:08.532Z,93247.55
2019-03-10T18:29:37.116Z,93244.14
2019-03-10T18:32:05.914Z,93252.98
2019-03-10T18:34:33.999Z,93256.48
2019-03-10T18:37:03.032Z,93262.45
2019-03-10T18:39:31.596Z,93271.19
2019-03-10T18:42:00.448Z,93274.89
2019-03-10T18:47:49.641Z,93296.66
2019-03-10T18:50:31.772Z,93289.06
2019-03-10T18:53:00.658Z,93277.51
2019-03-10T18:58:30.013Z,93310.09
2019-03-10T19:00:58.432Z,93330.64
2019-03-10T19:03:27.097Z,93337.02
2019-03-10T19:05:57.926Z,93337.88
2019-03-10T19:08:26.376Z,93367.93
2019-03-10T19:11:14.515Z,93376.41
2019-03-10T19:13:43.285Z,93376.02
2019-03-10T19:16:11.368Z,93380.07
2019-03-10T19:18:40.099Z,93385.77
2019-03-10T19:21:08.159Z,93386.28
2019-03-10T19:23:36.317Z,93374.77
2019-03-10T19:26:04.682Z,93393.55
2019-03-10T19:31:54.272Z,93458.60
2019-03-10T19:34:23.167Z,93458.19
2019-03-10T19:36:57.375Z,93449.62
2019-03-10T19:39:50.961Z,93451.52
2019-03-10T19:42:20.274Z,93455.73
2019-03-10T19:44:49.183Z,93440.03
2019-03-10T19:47:36.349Z,93436.05
2019-03-10T19:50:16.330Z,93443.16
2019-03-10T19:52:56.645Z,93432.11
2019-03-10T19:55:25.039Z,93436.47
2019-03-10T19:57:53.431Z,93439.83
2019-03-10T20:00:21.296Z,93445.30
2019-03-10T20:02:49.178Z,93439.34
2019-03-10T20:05:17.549Z,93468.19
2019-03-10T20:07:46.394Z,93471.61
2019-03-10T20:10:14.783Z,93473.02
2019-03-10T20:12:43.472Z,93474.45
2019-03-10T20:15:14.400Z,93480.91
2019-03-10T20:18:23.247Z,93490.14
2019-03-10T20:21:10.809Z,93482.41
2019-03-10T20:23:39.497Z,93484.50
2019-03-10T20:26:07.968Z,93476.83
2019-03-10T20:28:36.260Z,93487.44
2019-03-10T20:31:05.071Z,93490.81
2019-03-10T20:33:33.451Z,93488.32
2019-03-10T20:36:12.666Z,93505.19
2019-03-10T20:38:41.461Z,93507.22
2019-03-10T20:41:10.301Z,93512.30
2019-03-10T20:43:38.734Z,93511.54
2019-03-10T20:46:08.864Z,93512.81
2019-03-10T20:48:37.731Z,93503.02
2019-03-10T20:51:06.444Z,93513.63
2019-03-10T20:53:34.886Z,93524.69
2019-03-10T20:56:03.714Z,93523.05
2019-03-10T21:01:34.172Z,93539.33
2019-03-10T21:04:02.580Z,93545.36
2019-03-10T21:06:31.842Z,93606.52
2019-03-10T21:09:40.209Z,93589.06
2019-03-10T21:12:08.939Z,93596.39
2019-03-10T21:14:37.846Z,93582.94
2019-03-10T21:17:08.922Z,93588.89
2019-03-10T21:19:37.598Z,93590.84
2019-03-10T21:22:07.219Z,93589.50
2019-03-10T21:24:35.214Z,93596.75
2019-03-10T21:27:05.005Z,93613.02
2019-03-10T21:29:33.469Z,93632.80
2019-03-10T21:32:02.220Z,93645.45
2019-03-10T21:34:49.812Z,93639.77
2019-03-10T21:37:49.159Z,93658.56
2019-03-10T21:40:36.931Z,93654.05
2019-03-10T21:43:06.101Z,93658.72
2019-03-10T21:45:34.691Z,93660.84
2019-03-10T21:48:03.288Z,93666.72
2019-03-10T21:50:31.170Z,93663.75
2019-03-10T21:52:59.943Z,93667.12
2019-03-10T21:55:28.384Z,93668.36
2019-03-10T21:57:56.976Z,93666.27
2019-03-10T22:00:25.812Z,93660.34
2019-03-10T22:02:54.183Z,93662.41
2019-03-10T22:05:22.772Z,93651.83
2019-03-10T22:07:51.547Z,93671.62
2019-03-10T22:13:16.466Z,93677.91
2019-03-10T22:15:44.448Z,93674.55
2019-03-10T22:18:20.613Z,93686.72
2019-03-10T22:20:48.691Z,93693.88
2019-03-10T22:23:35.698Z,93687.56
2019-03-10T22:26:04.405Z,93671.10
2019-03-10T22:28:32.607Z,93669.05
2019-03-10T22:34:22.340Z,93655.92
2019-03-10T22:36:51.463Z,93657.17
2019-03-10T22:39:20.333Z,93645.77
2019-03-10T22:42:09.968Z,93644.02
2019-03-10T22:44:38.998Z,93655.04
2019-03-10T22:50:35.147Z,93642.67
2019-03-10T22:53:03.545Z,93656.98
2019-03-10T22:55:31.818Z,93659.05
2019-03-10T22:58:00.521Z,93658.55
2019-03-10T23:00:47.271Z,93646.31
2019-03-10T23:03:15.626Z,93661.45
2019-03-10T23:05:43.783Z,93656.31
2019-03-10T23:08:52.491Z,93663.46
2019-03-10T23:11:21.314Z,93667.64
2019-03-10T23:13:50.159Z,93682.45
2019-03-10T23:16:18.643Z,93665.54
2019-03-10T23:18:47.054Z,93662.20
2019-03-10T23:21:15.412Z,93676.56
2019-03-10T23:23:43.333Z,93667.21
2019-03-10T23:26:11.678Z,93700.18
2019-03-10T23:28:39.578Z,93690.09
2019-03-10T23:31:08.086Z,93687.56
2019-03-10T23:33:36.758Z,93686.24
2019-03-10T23:36:04.713Z,93691.27
2019-03-10T23:38:32.925Z,93693.39
2019-03-10T23:41:02.132Z,93690.84
2019-03-10T23:43:31.278Z,93697.24
2019-03-10T23:45:59.572Z,93708.67
2019-03-10T23:48:47.198Z,93710.83
2019-03-10T23:51:34.541Z,93711.26
2019-03-10T23:54:03.125Z,93717.20
2019-03-10T23:56:31.486Z,93722.28
2019-03-10T23:59:19.230Z,93725.20
